Provisional Data: Elk Run near Watrous, PA


Please select a monitoring station.
Please select start date.
Please select start date.
Historical Station - Data Range: 06/23/2010 - 10/23/2017

Toggle Unit: C/F Toggle Unit: C/F
Sample Time Temperature (C) Temperature (F) Specific Conductivity (mS/cm) pH   Turbidity (NTU+) DO (mg/L)
9/23/2017 12:00:00 AM 16.83 62.294 99.82 7.48 3.78 8.49
9/23/2017 4:00:00 AM 15.12 59.216 95.65 7.48 1.6 8.9
9/23/2017 8:00:00 AM 14.25 57.65 93.34 7.53 0.15 9.43
9/23/2017 12:00:00 PM 18.64 65.552 101.54 7.76 0.63 9.34
9/23/2017 4:00:00 PM 20.69 69.242 105.52 7.71 0.25 8.3
9/23/2017 8:00:00 PM 19.4 66.92 105.79 7.49 0.45 7.84
9/24/2017 12:00:00 AM 17.66 63.788 102.62 7.48 0.94 8.26
9/24/2017 4:00:00 AM 16.27 61.286 99.03 7.46 0.97 8.58
9/24/2017 8:00:00 AM 15.57 60.026 96.99 7.52 0.76 9.17
9/24/2017 12:00:00 PM 19.85 67.73 104.99 7.71 0.17 9.05
9/24/2017 4:00:00 PM 21.87 71.366 108.8 7.69 0.2 8.12
9/24/2017 8:00:00 PM 20.31 68.558 108.71 7.49 0.58 7.61
9/25/2017 12:00:00 AM 18.54 65.372 105.66 7.48 0.3 7.99
9/25/2017 4:00:00 AM 17.35 63.23 102.65 7.48 0.35 8.32
9/25/2017 8:00:00 AM 16.89 62.402 101.14 7.52 1.6 8.71
9/25/2017 12:00:00 PM 20.39 68.702 107.2 7.56 0.41 8.47
9/25/2017 4:00:00 PM 22.44 72.392 111.03 7.62 0.49 7.82
9/25/2017 8:00:00 PM 20.74 69.332 110.52 7.48 0.98 7.49
9/26/2017 12:00:00 AM 19.18 66.524 108.14 7.46 0.92 7.8
9/26/2017 4:00:00 AM 17.92 64.256 104.92 7.46 0.74 8.1
9/26/2017 8:00:00 AM 17.42 63.356 103.52 7.51 0.66 8.52
9/26/2017 12:00:00 PM 20.56 69.008 107.99 7.7 1.07 8.88
9/26/2017 4:00:00 PM 21.85 71.33 110.14 7.67 0.53 8.09
9/26/2017 8:00:00 PM 20.56 69.008 109.99 7.48 0.56 7.52
9/27/2017 12:00:00 AM 19.08 66.344 108.2 7.48 0.76 7.89
9/27/2017 4:00:00 AM 17.83 64.094 104.89 7.47 0.74 8.18
9/27/2017 8:00:00 AM 17.43 63.374 103.22 7.54 0.91 8.65
9/27/2017 12:00:00 PM 20.57 69.026 108.47 7.71 0.64 8.74
9/27/2017 4:00:00 PM 21.72 71.096 110.45 7.62 0.6 7.98
9/27/2017 8:00:00 PM 20.73 69.314 110.94 7.48 0.97 7.32
9/28/2017 12:00:00 AM 19.47 67.046 109.77 7.49 0.76 7.72
9/28/2017 4:00:00 AM 17.85 64.13 105.43 7.49 0.91 8.09
9/28/2017 8:00:00 AM 16.65 61.97 102 7.55 2 8.66
9/28/2017 12:00:00 PM 18.08 64.544 102.46 7.82 0.71 9.54
9/28/2017 4:00:00 PM 18.43 65.174 102.33 7.8 0.89 9.04
9/28/2017 8:00:00 PM 16.46 61.628 100.24 7.54 0.98 8.39
9/29/2017 12:00:00 AM 14.84 58.712 97.55 7.51 0.92 8.77
9/29/2017 4:00:00 AM 12.95 55.31 93.36 7.52 0.98 9.34
9/29/2017 8:00:00 AM 11.55 52.79 89.51 7.57 1.2 9.97
9/29/2017 12:00:00 PM 15.09 59.162 96.61 7.78 0.99 10.13
9/29/2017 4:00:00 PM 15.34 59.612 95.67 7.8 1.13 9.84
9/29/2017 8:00:00 PM 14.34 57.812 94.57 7.54 1.5 8.86
9/30/2017 12:00:00 AM 13.42 56.156 93.17 7.53 1.27 9.18
9/30/2017 4:00:00 AM 12.89 55.202 91.51 7.55 1.59 9.46
9/30/2017 8:00:00 AM 12.26 54.068 89.34 7.59 1.24 9.88
9/30/2017 12:00:00 PM 13.05 55.49 88.87 7.76 0.95 10.53
9/30/2017 4:00:00 PM 13.8 56.84 89.11 7.83 1.11 10.29
9/30/2017 8:00:00 PM 12.72 54.896 88.43 7.59 1.32 9.6
10/1/2017 12:00:00 AM 11.17 52.106 85.92 7.55 1.06 10
10/1/2017 4:00:00 AM 10.14 50.252 83.95 7.55 1.32 10.29
10/1/2017 8:00:00 AM 9.34 48.812 82.14 7.58 1.06 10.78
10/1/2017 12:00:00 PM 12.56 54.608 88.31 7.77 0.79 10.86
10/1/2017 4:00:00 PM 14.89 58.802 93.32 7.75 0.92 9.8
10/1/2017 8:00:00 PM 12.81 55.058 89.91 7.57 1.11 9.48
10/2/2017 12:00:00 AM 10.76 51.368 85.88 7.55 1.42 10.06
10/2/2017 4:00:00 AM 9.26 48.668 82.42 7.55 2.04 10.54
10/2/2017 8:00:00 AM 8.24 46.832 79.8 7.58 0.18 11.14
10/2/2017 12:00:00 PM 11.87 53.366 87.33 7.73 -0.07 11.05
10/2/2017 4:00:00 PM 14.92 58.856 93.17 7.73 0.6 9.85
10/2/2017 8:00:00 PM 13.05 55.49 90.21 7.56 0 9.53
10/3/2017 12:00:00 AM 11.12 52.016 86.65 7.53 0.35 10.05
10/3/2017 4:00:00 AM 9.48 49.064 82.53 7.53 -0.24 10.5
10/3/2017 8:00:00 AM 8.23 46.814 79.39 7.58 0.01 11.19
10/3/2017 12:00:00 PM 12.26 54.068 87.59 7.77 -0.77 11.09
10/3/2017 4:00:00 PM 15.41 59.738 94.36 7.76 -0.18 9.85
10/3/2017 8:00:00 PM 13.53 56.354 91.69 7.55 0.3 9.39
10/4/2017 12:00:00 AM 11.76 53.168 88.23 7.53 -0.22 9.87
10/4/2017 4:00:00 AM 10.27 50.486 84.57 7.53 0.01 10.31
10/4/2017 8:00:00 AM 9.26 48.668 81.91 7.56 -0.86 10.85
10/4/2017 12:00:00 PM 13.53 56.354 90.49 7.78 -1.1 10.78
10/4/2017 4:00:00 PM 16.98 62.564 98.21 7.73 -0.57 9.41
10/4/2017 8:00:00 PM 15.86 60.548 97.26 7.54 -0.73 8.7
10/5/2017 12:00:00 AM 14.91 58.838 96.14 7.52 -0.43 8.94
10/5/2017 4:00:00 AM 14.43 57.974 94.76 7.5 -0.18 9.1
10/5/2017 8:00:00 AM 14.25 57.65 94.42 7.5 -0.24 9.25
10/5/2017 12:00:00 PM 16.63 61.934 97.32 7.78 -0.95 9.77
10/5/2017 4:00:00 PM 17.43 63.374 98.89 7.71 -0.42 9.22
10/5/2017 8:00:00 PM 16.12 61.016 97.55 7.51 -0.15 8.59
10/6/2017 12:00:00 AM 14.35 57.83 93.92 7.51 0.06 9.13
10/6/2017 4:00:00 AM 13.22 55.796 90.98 7.51 -0.21 9.41
10/6/2017 8:00:00 AM 12.62 54.716 89.23 7.54 -0.83 9.9
10/6/2017 12:00:00 PM 14.49 58.082 91.55 7.79 -0.73 10.26
10/6/2017 4:00:00 PM 15.61 60.098 94.04 7.74 -1.01 9.63
10/6/2017 8:00:00 PM 15.47 59.846 96.17 7.5 -0.79 8.81
10/7/2017 12:00:00 AM 15.24 59.432 96.59 7.46 -0.71 8.84
10/7/2017 4:00:00 AM 14.83 58.694 96.07 7.47 0.15 8.92
10/7/2017 8:00:00 AM 14.56 58.208 95.03 7.49 0.39 9.17
10/7/2017 12:00:00 PM 16.54 61.772 97.12 7.78 -0.2 9.71
10/7/2017 4:00:00 PM 18.33 64.994 101.03 7.77 0.24 9
10/7/2017 8:00:00 PM 16.97 62.546 100.13 7.52 0.06 8.31
10/8/2017 12:00:00 AM 15.79 60.422 99.02 7.49 0.25 8.58
10/8/2017 4:00:00 AM 15.82 60.476 97.48 7.49 -0.07 8.5
10/8/2017 8:00:00 AM 16.15 61.07 97.97 7.48 -0.19 8.57
10/8/2017 12:00:00 PM 17.99 64.382 98.78 7.8 0 9.43
10/8/2017 4:00:00 PM 18.85 65.93 98.58 7.65 0.85 8.86
10/8/2017 8:00:00 PM 17.65 63.77 98.39 7.51 0.92 8.38
10/9/2017 12:00:00 AM 16.83 62.294 96.97 7.51 2.08 8.6
10/9/2017 4:00:00 AM 16.48 61.664 95.94 7.47 0.09 8.58
10/9/2017 8:00:00 AM 16.51 61.718 95.72 7.47 0.74 8.67
10/9/2017 12:00:00 PM 18.26 64.868 94.01 7.78 5.21 9.17
10/9/2017 4:00:00 PM 19.35 66.83 97.39 7.71 4.78 8.71
10/9/2017 8:00:00 PM 18.38 65.084 97.22 7.54 3.53 8.5
10/10/2017 12:00:00 AM 17.65 63.77 96.73 7.49 2.81 8.6
10/10/2017 4:00:00 AM 17.01 62.618 95.91 7.48 1.97 8.69
10/10/2017 8:00:00 AM 16.6 61.88 95.02 7.51 3.53 8.87
10/10/2017 12:00:00 PM 19.05 66.29 99.49 7.72 1.09 9.14
10/10/2017 4:00:00 PM 19.74 67.532 102.47 7.65 0.73 8.43
10/10/2017 8:00:00 PM 17.38 63.284 98.94 7.49 1.37 8.59
10/11/2017 12:00:00 AM 15.6 60.08 94.64 7.5 0.88 9.01
10/11/2017 4:00:00 AM 14.72 58.496 92.94 7.51 0.47 9.24
10/11/2017 8:00:00 AM 14.17 57.506 91.52 7.58 -0.17 9.75
10/11/2017 12:00:00 PM 14.83 58.694 90.72 7.66 0.02 9.75
10/11/2017 4:00:00 PM 15.06 59.108 90.4 7.57 1.25 9.24
10/11/2017 8:00:00 PM 14.76 58.568 85.34 7.62 8.73 9.53
10/12/2017 12:00:00 AM 14.48 58.064 86.91 7.62 13.17 9.65
10/12/2017 4:00:00 AM 14.34 57.812 87.12 7.6 8.17 9.69
10/12/2017 8:00:00 AM 14.19 57.542 85.4 7.61 5.59 9.78
10/12/2017 12:00:00 PM 14.32 57.776 84.93 7.68 3.64 9.91
10/12/2017 4:00:00 PM 14.03 57.254 83.85 7.65 3.19 9.86
10/12/2017 8:00:00 PM 13.62 56.516 83.06 7.58 3.07 9.81
10/13/2017 12:00:00 AM 13.26 55.868 82.16 7.59 2.44 9.87
10/13/2017 4:00:00 AM 12.73 54.914 81.6 7.58 2.28 9.98
10/13/2017 8:00:00 AM 12.44 54.392 80.92 7.62 0.6 10.2
10/13/2017 12:00:00 PM 13.09 55.562 80.96 7.79 0.58 10.5
10/13/2017 4:00:00 PM 13.3 55.94 81.77 7.7 0.55 10.11
10/13/2017 8:00:00 PM 13.16 55.688 82.19 7.59 1.2 9.8
10/14/2017 12:00:00 AM 13.11 55.598 82.04 7.54 9 9.78
10/14/2017 4:00:00 AM 13.14 55.652 82.45 7.53 0.07 9.72
10/14/2017 8:00:00 AM 13.29 55.922 82.78 7.59 -0.02 9.93
10/14/2017 12:00:00 PM 14.45 58.01 83.7 7.8 -0.02 10.26
10/14/2017 4:00:00 PM 15.49 59.882 86.1 7.73 0.24 9.63
10/14/2017 8:00:00 PM 14.41 57.938 85.79 7.53 0.22 9.26
10/15/2017 12:00:00 AM 14.05 57.29 84.93 7.52 0.07 9.43
10/15/2017 4:00:00 AM 14.1 57.38 85.27 7.54 0.1 9.38
10/15/2017 8:00:00 AM 14.17 57.506 85.41 7.56 0.21 9.61
10/15/2017 12:00:00 PM 16.72 62.096 88.81 7.87 -0.26 9.79
10/15/2017 4:00:00 PM 17.76 63.968 91.55 7.75 -0.09 8.93
10/15/2017 8:00:00 PM 17.01 62.618 89.78 7.51 2.15 8.48
10/16/2017 12:00:00 AM 15.46 59.828 87.87 7.55 3.16 9.06
10/16/2017 4:00:00 AM 13.9 57.02 82.55 7.56 2.54 9.52
10/16/2017 8:00:00 AM 12.65 54.77 80.68 7.6 0.27 10.05
10/16/2017 12:00:00 PM 13.58 56.444 82.88 7.84 0.06 10.56
10/16/2017 4:00:00 PM 14.01 57.218 84.36 7.77 0.31 9.88
10/16/2017 8:00:00 PM 11.35 52.43 80 7.55 0.43 10.09
10/17/2017 12:00:00 AM 9.54 49.172 76.23 7.52 0.42 10.54
10/17/2017 4:00:00 AM 7.99 46.382 73.18 7.52 0.11 11.1
10/17/2017 8:00:00 AM 6.84 44.312 70.71 7.57 -0.05 11.71
10/17/2017 12:00:00 PM 9.57 49.226 75.59 7.67 0.39 11.33
10/17/2017 4:00:00 PM 12.04 53.672 80.17 7.75 0.84 10.45
10/17/2017 8:00:00 PM 10.1 50.18 77.36 7.54 0.18 10.43
10/18/2017 12:00:00 AM 8.69 47.642 74.21 7.53 0.26 10.89
10/18/2017 4:00:00 AM 7.7 45.86 71.78 7.51 0.27 11.26
10/18/2017 8:00:00 AM 6.87 44.366 70 7.59 0.2 11.87
10/18/2017 12:00:00 PM 10.48 50.864 76.75 7.85 0 11.61
10/18/2017 4:00:00 PM 12.98 55.364 81.83 7.74 0.95 10.18
10/18/2017 8:00:00 PM 11.11 51.998 79 7.56 0.04 10.22
10/19/2017 12:00:00 AM 9.29 48.722 74.57 7.55 0.26 10.72
10/19/2017 4:00:00 AM 7.88 46.184 71.66 7.55 1.58 11.25
10/19/2017 8:00:00 AM 6.94 44.492 70.13 7.6 17.51 11.69
10/19/2017 12:00:00 PM 10.76 51.368 76.82 7.84 3.47 11.48
10/19/2017 4:00:00 PM 12.99 55.382 80.91 7.84 6.47 10.24
10/19/2017 8:00:00 PM 11.5 52.7 79.66 7.59 -0.88 10.06
10/20/2017 12:00:00 AM 9.93 49.874 76.36 7.56 -0.45 10.55
10/20/2017 4:00:00 AM 8.75 47.75 74.11 7.55 -0.77 10.91
10/20/2017 8:00:00 AM 8.12 46.616 72.82 7.62 -0.91 11.33
10/20/2017 12:00:00 PM 11.34 52.412 77.83 7.94 -0.79 11.43
10/20/2017 4:00:00 PM 13.01 55.418 81.26 7.82 -0.82 10.27
10/20/2017 8:00:00 PM 10.97 51.746 79.13 7.58 -0.29 10.29
10/21/2017 12:00:00 AM 8.98 48.164 74.63 7.56 -0.09 10.88
10/21/2017 4:00:00 AM 7.64 45.752 71.96 7.56 -0.3 11.28
10/21/2017 8:00:00 AM 6.59 43.862 69.87 7.6 1.64 11.93
10/21/2017 12:00:00 PM 9.93 49.874 74.99 7.98 -0.56 12.1
10/21/2017 4:00:00 PM 12.08 53.744 78.4 8 0.66 10.9
10/21/2017 8:00:00 PM 11.15 52.07 79.5 7.59 -0.69 10.24
10/22/2017 12:00:00 AM 9.59 49.262 76.11 7.56 -0.72 10.69
10/22/2017 4:00:00 AM 8.36 47.048 73.53 7.55 -0.55 11.07
10/22/2017 8:00:00 AM 7.48 45.464 71.83 7.6 -1.1 11.58
10/22/2017 12:00:00 PM 10.83 51.494 77.13 7.86 -1.18 11.72
10/22/2017 4:00:00 PM 13.58 56.444 81.74 7.98 -1.16 10.53
10/22/2017 8:00:00 PM 12.62 54.716 83.11 7.59 -0.86 9.77
10/23/2017 12:00:00 AM 11.14 52.052 80.08 7.54 -0.68 10.19
These are provisional data and have not been subject to a quality assurance process, but rather are the raw data reported by the instrument.

Data Availability & Limitations

Uncertainty and potential for error can be associated with environmental monitoring data. Provisional data have not been subject to a quality assurance process, but rather are the raw data reported by the instrument. Data users are cautioned to consider carefully the provisional nature of the information before using it for decisions that concern personal or public safety or the conduct of business that involves substantial monetary or operational consequences.

Approved data are currently available by request by emailing: srbc@srbc.net. Approved data have been subject to a quality assurance process to correct for equipment or fouling drift. Data recorded during equipment malfunctions have been removed.

View Historical Stations that have been been discontinued.